sensor_id;sensor_type;location;lat;lon;timestamp;temperature;humidity
22827;DHT22;11580;52.562;13.418;2023-09-08T00:00:07;21.20;28.80
22827;DHT22;11580;52.562;13.418;2023-09-08T00:02:37;21.20;28.90
22827;DHT22;11580;52.562;13.418;2023-09-08T00:05:04;21.20;29.20
22827;DHT22;11580;52.562;13.418;2023-09-08T00:07:31;21.10;29.00
22827;DHT22;11580;52.562;13.418;2023-09-08T00:09:58;21.10;29.00
22827;DHT22;11580;52.562;13.418;2023-09-08T00:12:25;21.00;29.00
22827;DHT22;11580;52.562;13.418;2023-09-08T00:14:52;21.00;29.10
22827;DHT22;11580;52.562;13.418;2023-09-08T00:17:20;20.90;29.10
22827;DHT22;11580;52.562;13.418;2023-09-08T00:19:48;20.90;29.10
22827;DHT22;11580;52.562;13.418;2023-09-08T00:22:16;20.90;29.40
22827;DHT22;11580;52.562;13.418;2023-09-08T00:24:42;20.80;29.30
22827;DHT22;11580;52.562;13.418;2023-09-08T00:27:09;20.80;29.40
22827;DHT22;11580;52.562;13.418;2023-09-08T00:29:36;20.70;29.40
22827;DHT22;11580;52.562;13.418;2023-09-08T00:32:04;20.70;29.50
22827;DHT22;11580;52.562;13.418;2023-09-08T00:34:31;20.70;29.60
22827;DHT22;11580;52.562;13.418;2023-09-08T00:37:00;20.60;29.60
22827;DHT22;11580;52.562;13.418;2023-09-08T00:39:34;20.60;29.90
22827;DHT22;11580;52.562;13.418;2023-09-08T00:42:02;20.60;29.80
22827;DHT22;11580;52.562;13.418;2023-09-08T00:44:29;20.50;29.80
22827;DHT22;11580;52.562;13.418;2023-09-08T00:46:56;20.50;29.90
22827;DHT22;11580;52.562;13.418;2023-09-08T00:49:23;20.50;29.90
22827;DHT22;11580;52.562;13.418;2023-09-08T00:51:51;20.50;29.90
22827;DHT22;11580;52.562;13.418;2023-09-08T00:54:20;20.40;29.90
22827;DHT22;11580;52.562;13.418;2023-09-08T00:56:48;20.40;30.20
22827;DHT22;11580;52.562;13.418;2023-09-08T00:59:21;20.50;30.20
22827;DHT22;11580;52.562;13.418;2023-09-08T01:01:50;20.30;30.00
22827;DHT22;11580;52.562;13.418;2023-09-08T01:04:18;20.50;30.00
22827;DHT22;11580;52.562;13.418;2023-09-08T01:06:45;20.30;30.00
22827;DHT22;11580;52.562;13.418;2023-09-08T01:09:12;20.30;30.00
22827;DHT22;11580;52.562;13.418;2023-09-08T01:11:42;20.20;30.00
22827;DHT22;11580;52.562;13.418;2023-09-08T01:14:11;20.20;30.30
22827;DHT22;11580;52.562;13.418;2023-09-08T01:16:39;20.20;30.50
22827;DHT22;11580;52.562;13.418;2023-09-08T01:19:11;20.20;30.10
22827;DHT22;11580;52.562;13.418;2023-09-08T01:22:11;20.10;30.70
22827;DHT22;11580;52.562;13.418;2023-09-08T01:25:05;20.10;31.20
22827;DHT22;11580;52.562;13.418;2023-09-08T01:27:43;20.10;31.20
22827;DHT22;11580;52.562;13.418;2023-09-08T01:30:14;20.00;30.50
22827;DHT22;11580;52.562;13.418;2023-09-08T01:32:43;20.10;30.40
22827;DHT22;11580;52.562;13.418;2023-09-08T01:35:11;20.00;30.60
22827;DHT22;11580;52.562;13.418;2023-09-08T01:37:40;19.90;30.50
22827;DHT22;11580;52.562;13.418;2023-09-08T01:40:10;19.90;30.70
22827;DHT22;11580;52.562;13.418;2023-09-08T01:42:38;19.90;31.30
22827;DHT22;11580;52.562;13.418;2023-09-08T01:45:07;19.80;30.90
22827;DHT22;11580;52.562;13.418;2023-09-08T01:53:23;19.80;31.00
22827;DHT22;11580;52.562;13.418;2023-09-08T01:55:52;19.70;31.00
22827;DHT22;11580;52.562;13.418;2023-09-08T01:58:19;19.70;31.50
22827;DHT22;11580;52.562;13.418;2023-09-08T02:00:49;19.70;31.20
22827;DHT22;11580;52.562;13.418;2023-09-08T02:03:16;19.80;31.90
22827;DHT22;11580;52.562;13.418;2023-09-08T02:05:45;19.70;31.30
22827;DHT22;11580;52.562;13.418;2023-09-08T02:08:12;19.70;31.70
22827;DHT22;11580;52.562;13.418;2023-09-08T02:10:40;19.60;31.40
22827;DHT22;11580;52.562;13.418;2023-09-08T02:13:09;19.60;31.50
22827;DHT22;11580;52.562;13.418;2023-09-08T02:15:36;19.60;31.80
22827;DHT22;11580;52.562;13.418;2023-09-08T02:18:04;19.60;31.60
22827;DHT22;11580;52.562;13.418;2023-09-08T02:20:33;19.60;31.80
22827;DHT22;11580;52.562;13.418;2023-09-08T02:23:05;19.60;31.80
22827;DHT22;11580;52.562;13.418;2023-09-08T02:25:34;19.60;32.40
22827;DHT22;11580;52.562;13.418;2023-09-08T02:28:01;19.60;31.90
22827;DHT22;11580;52.562;13.418;2023-09-08T02:30:30;19.60;32.00
22827;DHT22;11580;52.562;13.418;2023-09-08T02:32:59;19.60;32.30
22827;DHT22;11580;52.562;13.418;2023-09-08T02:35:26;19.60;32.10
22827;DHT22;11580;52.562;13.418;2023-09-08T02:37:55;19.50;32.10
22827;DHT22;11580;52.562;13.418;2023-09-08T02:40:23;19.60;32.20
22827;DHT22;11580;52.562;13.418;2023-09-08T02:42:50;19.60;32.20
22827;DHT22;11580;52.562;13.418;2023-09-08T02:45:17;19.50;32.10
22827;DHT22;11580;52.562;13.418;2023-09-08T02:47:46;19.50;32.10
22827;DHT22;11580;52.562;13.418;2023-09-08T02:50:13;19.60;32.50
22827;DHT22;11580;52.562;13.418;2023-09-08T02:52:41;19.50;32.30
22827;DHT22;11580;52.562;13.418;2023-09-08T02:55:08;19.50;32.30
22827;DHT22;11580;52.562;13.418;2023-09-08T02:57:35;19.50;32.30
22827;DHT22;11580;52.562;13.418;2023-09-08T03:00:03;19.50;32.30
22827;DHT22;11580;52.562;13.418;2023-09-08T03:02:31;19.50;32.40
22827;DHT22;11580;52.562;13.418;2023-09-08T03:05:00;19.50;32.50
22827;DHT22;11580;52.562;13.418;2023-09-08T03:07:28;19.50;32.70
22827;DHT22;11580;52.562;13.418;2023-09-08T03:09:55;19.50;32.50
22827;DHT22;11580;52.562;13.418;2023-09-08T03:12:22;19.60;32.60
22827;DHT22;11580;52.562;13.418;2023-09-08T03:14:50;19.50;32.60
22827;DHT22;11580;52.562;13.418;2023-09-08T03:17:17;19.40;32.60
22827;DHT22;11580;52.562;13.418;2023-09-08T03:19:46;19.40;32.70
22827;DHT22;11580;52.562;13.418;2023-09-08T03:22:14;19.40;32.70
22827;DHT22;11580;52.562;13.418;2023-09-08T03:24:41;19.40;33.10
22827;DHT22;11580;52.562;13.418;2023-09-08T03:27:09;19.40;32.80
22827;DHT22;11580;52.562;13.418;2023-09-08T03:29:36;19.40;32.80
22827;DHT22;11580;52.562;13.418;2023-09-08T03:32:03;19.40;32.80
22827;DHT22;11580;52.562;13.418;2023-09-08T03:34:31;19.40;33.00
22827;DHT22;11580;52.562;13.418;2023-09-08T03:36:59;19.40;33.00
22827;DHT22;11580;52.562;13.418;2023-09-08T03:39:27;19.40;33.10
22827;DHT22;11580;52.562;13.418;2023-09-08T03:41:54;19.40;33.40
22827;DHT22;11580;52.562;13.418;2023-09-08T03:44:22;19.30;33.00
22827;DHT22;11580;52.562;13.418;2023-09-08T03:46:49;19.30;33.10
22827;DHT22;11580;52.562;13.418;2023-09-08T03:49:16;19.30;33.10
22827;DHT22;11580;52.562;13.418;2023-09-08T03:51:44;19.30;33.20
22827;DHT22;11580;52.562;13.418;2023-09-08T03:54:12;19.30;33.20
22827;DHT22;11580;52.562;13.418;2023-09-08T03:56:40;19.30;33.20
22827;DHT22;11580;52.562;13.418;2023-09-08T03:59:07;19.30;33.50
22827;DHT22;11580;52.562;13.418;2023-09-08T04:01:34;19.30;33.30
22827;DHT22;11580;52.562;13.418;2023-09-08T04:04:02;19.30;33.30
22827;DHT22;11580;52.562;13.418;2023-09-08T04:06:29;19.30;33.30
22827;DHT22;11580;52.562;13.418;2023-09-08T04:08:56;19.30;33.40
22827;DHT22;11580;52.562;13.418;2023-09-08T04:11:24;19.30;33.40
22827;DHT22;11580;52.562;13.418;2023-09-08T04:13:52;19.30;33.50
22827;DHT22;11580;52.562;13.418;2023-09-08T04:16:20;19.30;33.80
22827;DHT22;11580;52.562;13.418;2023-09-08T04:18:47;19.40;33.70
22827;DHT22;11580;52.562;13.418;2023-09-08T04:21:14;19.20;33.50
22827;DHT22;11580;52.562;13.418;2023-09-08T04:23:41;19.40;33.70
22827;DHT22;11580;52.562;13.418;2023-09-08T04:26:08;19.30;33.70
22827;DHT22;11580;52.562;13.418;2023-09-08T04:28:36;19.40;34.50
22827;DHT22;11580;52.562;13.418;2023-09-08T04:31:05;19.20;33.60
22827;DHT22;11580;52.562;13.418;2023-09-08T04:33:32;19.20;33.90
22827;DHT22;11580;52.562;13.418;2023-09-08T04:35:59;19.40;33.80
22827;DHT22;11580;52.562;13.418;2023-09-08T04:38:26;19.20;33.70
22827;DHT22;11580;52.562;13.418;2023-09-08T04:40:53;19.20;33.80
22827;DHT22;11580;52.562;13.418;2023-09-08T04:43:20;19.20;33.80
22827;DHT22;11580;52.562;13.418;2023-09-08T04:45:48;19.20;33.80
22827;DHT22;11580;52.562;13.418;2023-09-08T04:48:17;19.30;33.90
22827;DHT22;11580;52.562;13.418;2023-09-08T04:50:44;19.30;34.20
22827;DHT22;11580;52.562;13.418;2023-09-08T04:53:12;19.30;33.90
22827;DHT22;11580;52.562;13.418;2023-09-08T04:55:40;19.30;33.90
22827;DHT22;11580;52.562;13.418;2023-09-08T04:58:07;19.30;34.00
22827;DHT22;11580;52.562;13.418;2023-09-08T05:00:34;19.30;34.00
22827;DHT22;11580;52.562;13.418;2023-09-08T05:03:04;19.30;34.00
22827;DHT22;11580;52.562;13.418;2023-09-08T05:05:33;19.40;34.10
22827;DHT22;11580;52.562;13.418;2023-09-08T05:08:00;19.40;34.30
22827;DHT22;11580;52.562;13.418;2023-09-08T05:10:27;19.40;34.10
22827;DHT22;11580;52.562;13.418;2023-09-08T05:12:55;19.40;34.10
22827;DHT22;11580;52.562;13.418;2023-09-08T05:15:23;19.50;34.20
22827;DHT22;11580;52.562;13.418;2023-09-08T05:17:52;19.50;34.20
22827;DHT22;11580;52.562;13.418;2023-09-08T05:20:21;19.60;34.20
22827;DHT22;11580;52.562;13.418;2023-09-08T05:22:49;19.60;35.00
22827;DHT22;11580;52.562;13.418;2023-09-08T05:25:17;19.70;34.50
22827;DHT22;11580;52.562;13.418;2023-09-08T05:27:44;19.70;34.30
22827;DHT22;11580;52.562;13.418;2023-09-08T05:30:12;19.70;34.30
22827;DHT22;11580;52.562;13.418;2023-09-08T05:32:40;19.80;34.30
22827;DHT22;11580;52.562;13.418;2023-09-08T05:35:08;19.80;34.20
22827;DHT22;11580;52.562;13.418;2023-09-08T05:37:35;19.90;34.30
22827;DHT22;11580;52.562;13.418;2023-09-08T05:40:06;20.00;34.30
22827;DHT22;11580;52.562;13.418;2023-09-08T05:42:34;20.00;34.50
22827;DHT22;11580;52.562;13.418;2023-09-08T05:45:01;20.10;34.30
22827;DHT22;11580;52.562;13.418;2023-09-08T05:47:28;20.20;34.30
22827;DHT22;11580;52.562;13.418;2023-09-08T05:49:56;20.20;34.20
22827;DHT22;11580;52.562;13.418;2023-09-08T05:52:23;20.30;34.20
22827;DHT22;11580;52.562;13.418;2023-09-08T05:54:52;20.40;34.20
22827;DHT22;11580;52.562;13.418;2023-09-08T05:57:21;20.50;34.10
22827;DHT22;11580;52.562;13.418;2023-09-08T05:59:48;20.60;34.20
22827;DHT22;11580;52.562;13.418;2023-09-08T06:02:16;20.60;34.00
22827;DHT22;11580;52.562;13.418;2023-09-08T06:04:43;20.70;34.00
22827;DHT22;11580;52.562;13.418;2023-09-08T06:07:10;20.80;33.90
22827;DHT22;11580;52.562;13.418;2023-09-08T06:09:37;20.90;33.90
22827;DHT22;11580;52.562;13.418;2023-09-08T06:12:05;21.00;33.70
22827;DHT22;11580;52.562;13.418;2023-09-08T06:14:34;21.00;33.70
22827;DHT22;11580;52.562;13.418;2023-09-08T06:17:01;21.10;33.60
22827;DHT22;11580;52.562;13.418;2023-09-08T06:19:28;21.20;33.50
22827;DHT22;11580;52.562;13.418;2023-09-08T06:21:55;21.30;33.50
22827;DHT22;11580;52.562;13.418;2023-09-08T06:24:22;21.30;33.30
22827;DHT22;11580;52.562;13.418;2023-09-08T06:26:50;21.40;33.20
22827;DHT22;11580;52.562;13.418;2023-09-08T06:29:19;21.50;33.90
22827;DHT22;11580;52.562;13.418;2023-09-08T06:31:48;21.60;33.10
22827;DHT22;11580;52.562;13.418;2023-09-08T06:34:15;21.70;33.10
22827;DHT22;11580;52.562;13.418;2023-09-08T06:36:46;21.70;33.70
22827;DHT22;11580;52.562;13.418;2023-09-08T06:39:13;21.80;32.80
22827;DHT22;11580;52.562;13.418;2023-09-08T06:41:40;21.90;32.70
22827;DHT22;11580;52.562;13.418;2023-09-08T06:44:10;22.00;32.60
22827;DHT22;11580;52.562;13.418;2023-09-08T06:46:38;22.10;32.40
22827;DHT22;11580;52.562;13.418;2023-09-08T06:49:07;22.20;32.20
22827;DHT22;11580;52.562;13.418;2023-09-08T06:51:35;22.20;32.10
22827;DHT22;11580;52.562;13.418;2023-09-08T06:54:04;22.30;32.00
22827;DHT22;11580;52.562;13.418;2023-09-08T06:56:41;22.40;31.90
22827;DHT22;11580;52.562;13.418;2023-09-08T06:59:08;22.50;31.80
22827;DHT22;11580;52.562;13.418;2023-09-08T07:01:36;22.60;31.70
22827;DHT22;11580;52.562;13.418;2023-09-08T07:04:05;22.70;31.60
22827;DHT22;11580;52.562;13.418;2023-09-08T07:06:34;22.70;31.40
22827;DHT22;11580;52.562;13.418;2023-09-08T07:09:04;22.90;31.30
22827;DHT22;11580;52.562;13.418;2023-09-08T07:11:31;23.00;31.20
22827;DHT22;11580;52.562;13.418;2023-09-08T07:13:58;23.10;31.00
22827;DHT22;11580;52.562;13.418;2023-09-08T07:16:26;23.10;30.90
22827;DHT22;11580;52.562;13.418;2023-09-08T07:18:53;23.20;30.80
22827;DHT22;11580;52.562;13.418;2023-09-08T07:21:21;23.30;30.70
22827;DHT22;11580;52.562;13.418;2023-09-08T07:23:50;23.40;30.70
22827;DHT22;11580;52.562;13.418;2023-09-08T07:26:18;23.50;30.50
22827;DHT22;11580;52.562;13.418;2023-09-08T07:28:45;23.60;30.60
22827;DHT22;11580;52.562;13.418;2023-09-08T07:31:15;23.70;30.50
22827;DHT22;11580;52.562;13.418;2023-09-08T07:33:45;23.80;30.40
22827;DHT22;11580;52.562;13.418;2023-09-08T07:36:12;23.90;30.30
22827;DHT22;11580;52.562;13.418;2023-09-08T07:38:41;24.00;30.20
22827;DHT22;11580;52.562;13.418;2023-09-08T07:41:10;24.10;30.10
22827;DHT22;11580;52.562;13.418;2023-09-08T07:43:38;24.20;29.80
22827;DHT22;11580;52.562;13.418;2023-09-08T07:46:08;24.20;29.90
22827;DHT22;11580;52.562;13.418;2023-09-08T07:48:35;24.30;29.80
22827;DHT22;11580;52.562;13.418;2023-09-08T07:51:03;24.50;29.80
22827;DHT22;11580;52.562;13.418;2023-09-08T07:53:31;24.50;29.60
22827;DHT22;11580;52.562;13.418;2023-09-08T07:55:58;24.60;29.50
22827;DHT22;11580;52.562;13.418;2023-09-08T07:58:27;24.70;29.30
22827;DHT22;11580;52.562;13.418;2023-09-08T08:00:54;24.80;29.10
22827;DHT22;11580;52.562;13.418;2023-09-08T08:03:21;24.90;29.20
22827;DHT22;11580;52.562;13.418;2023-09-08T08:05:48;25.00;29.10
22827;DHT22;11580;52.562;13.418;2023-09-08T08:08:15;25.00;29.00
22827;DHT22;11580;52.562;13.418;2023-09-08T08:10:42;25.10;28.70
22827;DHT22;11580;52.562;13.418;2023-09-08T08:13:10;25.20;28.80
22827;DHT22;11580;52.562;13.418;2023-09-08T08:15:40;25.30;28.80
22827;DHT22;11580;52.562;13.418;2023-09-08T08:18:08;25.40;28.40
22827;DHT22;11580;52.562;13.418;2023-09-08T08:20:36;25.50;28.50
22827;DHT22;11580;52.562;13.418;2023-09-08T08:23:05;25.60;28.30
22827;DHT22;11580;52.562;13.418;2023-09-08T08:25:33;25.70;28.20
22827;DHT22;11580;52.562;13.418;2023-09-08T08:28:00;25.80;28.10
22827;DHT22;11580;52.562;13.418;2023-09-08T08:30:28;25.80;28.00
22827;DHT22;11580;52.562;13.418;2023-09-08T08:32:57;25.90;27.90
22827;DHT22;11580;52.562;13.418;2023-09-08T08:35:24;26.00;27.60
22827;DHT22;11580;52.562;13.418;2023-09-08T08:37:51;26.10;27.60
22827;DHT22;11580;52.562;13.418;2023-09-08T08:40:18;26.20;27.50
22827;DHT22;11580;52.562;13.418;2023-09-08T08:42:45;26.30;27.50
22827;DHT22;11580;52.562;13.418;2023-09-08T08:45:13;26.30;27.30
22827;DHT22;11580;52.562;13.418;2023-09-08T08:47:44;26.40;27.30
22827;DHT22;11580;52.562;13.418;2023-09-08T08:50:13;26.50;27.20
22827;DHT22;11580;52.562;13.418;2023-09-08T08:52:42;26.60;27.00
22827;DHT22;11580;52.562;13.418;2023-09-08T08:55:10;26.70;27.00
22827;DHT22;11580;52.562;13.418;2023-09-08T08:57:39;26.70;26.80
22827;DHT22;11580;52.562;13.418;2023-09-08T09:00:08;26.80;26.70
22827;DHT22;11580;52.562;13.418;2023-09-08T09:02:39;26.90;26.60
22827;DHT22;11580;52.562;13.418;2023-09-08T09:05:09;26.90;26.50
22827;DHT22;11580;52.562;13.418;2023-09-08T09:07:40;27.00;26.30
22827;DHT22;11580;52.562;13.418;2023-09-08T09:10:08;27.10;26.30
22827;DHT22;11580;52.562;13.418;2023-09-08T09:12:36;27.20;26.30
22827;DHT22;11580;52.562;13.418;2023-09-08T09:15:05;27.20;26.10
22827;DHT22;11580;52.562;13.418;2023-09-08T09:17:34;27.30;25.90
22827;DHT22;11580;52.562;13.418;2023-09-08T09:20:16;27.40;25.90
22827;DHT22;11580;52.562;13.418;2023-09-08T09:22:45;27.40;25.30
22827;DHT22;11580;52.562;13.418;2023-09-08T09:25:21;27.50;25.60
22827;DHT22;11580;52.562;13.418;2023-09-08T09:27:53;27.60;25.30
22827;DHT22;11580;52.562;13.418;2023-09-08T09:30:21;27.70;25.30
22827;DHT22;11580;52.562;13.418;2023-09-08T09:33:01;27.70;25.50
22827;DHT22;11580;52.562;13.418;2023-09-08T09:35:42;27.80;25.00
22827;DHT22;11580;52.562;13.418;2023-09-08T09:38:12;27.90;24.80
22827;DHT22;11580;52.562;13.418;2023-09-08T09:40:39;27.90;25.10
22827;DHT22;11580;52.562;13.418;2023-09-08T09:43:07;28.00;25.10
22827;DHT22;11580;52.562;13.418;2023-09-08T09:45:38;28.00;25.00
22827;DHT22;11580;52.562;13.418;2023-09-08T09:48:06;28.10;25.40
22827;DHT22;11580;52.562;13.418;2023-09-08T09:50:36;28.20;24.80
22827;DHT22;11580;52.562;13.418;2023-09-08T09:53:08;28.20;24.70
22827;DHT22;11580;52.562;13.418;2023-09-08T09:55:39;28.20;24.20
22827;DHT22;11580;52.562;13.418;2023-09-08T09:58:09;28.30;24.60
22827;DHT22;11580;52.562;13.418;2023-09-08T10:00:37;28.40;24.50
22827;DHT22;11580;52.562;13.418;2023-09-08T10:03:06;28.40;24.90
22827;DHT22;11580;52.562;13.418;2023-09-08T10:05:34;28.50;24.40
22827;DHT22;11580;52.562;13.418;2023-09-08T10:08:01;28.50;24.20
22827;DHT22;11580;52.562;13.418;2023-09-08T10:10:32;28.60;24.00
22827;DHT22;11580;52.562;13.418;2023-09-08T10:13:03;28.60;23.60
22827;DHT22;11580;52.562;13.418;2023-09-08T10:15:33;28.70;23.70
22827;DHT22;11580;52.562;13.418;2023-09-08T10:18:04;28.80;23.80
22827;DHT22;11580;52.562;13.418;2023-09-08T10:20:33;28.80;23.20
22827;DHT22;11580;52.562;13.418;2023-09-08T10:23:06;28.90;23.50
22827;DHT22;11580;52.562;13.418;2023-09-08T10:25:43;28.90;23.00
22827;DHT22;11580;52.562;13.418;2023-09-08T10:28:19;29.00;22.90
22827;DHT22;11580;52.562;13.418;2023-09-08T10:30:46;29.00;23.40
22827;DHT22;11580;52.562;13.418;2023-09-08T10:33:15;29.10;23.40
22827;DHT22;11580;52.562;13.418;2023-09-08T10:35:45;29.20;23.10
22827;DHT22;11580;52.562;13.418;2023-09-08T10:38:23;29.20;23.00
22827;DHT22;11580;52.562;13.418;2023-09-08T10:40:53;29.30;22.60
22827;DHT22;11580;52.562;13.418;2023-09-08T10:43:42;29.30;22.60
22827;DHT22;11580;52.562;13.418;2023-09-08T10:46:09;29.40;22.70
22827;DHT22;11580;52.562;13.418;2023-09-08T10:48:41;29.50;22.70
22827;DHT22;11580;52.562;13.418;2023-09-08T10:51:12;29.50;22.20
22827;DHT22;11580;52.562;13.418;2023-09-08T10:53:40;29.60;22.10
22827;DHT22;11580;52.562;13.418;2023-09-08T10:56:08;29.60;22.40
22827;DHT22;11580;52.562;13.418;2023-09-08T10:58:36;29.70;22.10
22827;DHT22;11580;52.562;13.418;2023-09-08T11:01:06;29.60;22.00
22827;DHT22;11580;52.562;13.418;2023-09-08T11:03:51;29.70;22.00
22827;DHT22;11580;52.562;13.418;2023-09-08T11:06:21;29.80;21.70
22827;DHT22;11580;52.562;13.418;2023-09-08T11:08:49;29.80;21.90
22827;DHT22;11580;52.562;13.418;2023-09-08T11:11:22;29.80;22.00
22827;DHT22;11580;52.562;13.418;2023-09-08T11:13:49;29.80;21.40
22827;DHT22;11580;52.562;13.418;2023-09-08T11:16:16;29.90;21.50
22827;DHT22;11580;52.562;13.418;2023-09-08T11:18:50;29.90;21.40
22827;DHT22;11580;52.562;13.418;2023-09-08T11:21:18;29.90;20.90
22827;DHT22;11580;52.562;13.418;2023-09-08T11:23:45;29.90;21.30
22827;DHT22;11580;52.562;13.418;2023-09-08T11:26:12;30.00;21.20
22827;DHT22;11580;52.562;13.418;2023-09-08T11:28:42;30.00;21.00
22827;DHT22;11580;52.562;13.418;2023-09-08T11:31:12;30.00;21.00
22827;DHT22;11580;52.562;13.418;2023-09-08T11:33:39;30.10;21.00
22827;DHT22;11580;52.562;13.418;2023-09-08T11:36:12;30.10;21.00
22827;DHT22;11580;52.562;13.418;2023-09-08T11:38:42;30.10;20.60
22827;DHT22;11580;52.562;13.418;2023-09-08T11:41:11;30.20;20.80
22827;DHT22;11580;52.562;13.418;2023-09-08T11:43:38;30.20;20.80
22827;DHT22;11580;52.562;13.418;2023-09-08T11:46:07;30.20;20.60
22827;DHT22;11580;52.562;13.418;2023-09-08T11:48:36;30.20;20.10
22827;DHT22;11580;52.562;13.418;2023-09-08T11:51:06;30.30;20.40
22827;DHT22;11580;52.562;13.418;2023-09-08T11:53:34;30.30;20.20
22827;DHT22;11580;52.562;13.418;2023-09-08T11:56:04;30.30;20.30
22827;DHT22;11580;52.562;13.418;2023-09-08T11:58:31;30.30;20.20
22827;DHT22;11580;52.562;13.418;2023-09-08T12:00:59;30.30;20.10
22827;DHT22;11580;52.562;13.418;2023-09-08T12:03:28;30.40;20.10
22827;DHT22;11580;52.562;13.418;2023-09-08T12:05:55;30.40;19.80
22827;DHT22;11580;52.562;13.418;2023-09-08T12:08:25;30.40;19.90
22827;DHT22;11580;52.562;13.418;2023-09-08T12:10:53;30.40;19.50
22827;DHT22;11580;52.562;13.418;2023-09-08T12:13:21;30.50;19.80
22827;DHT22;11580;52.562;13.418;2023-09-08T12:15:49;30.50;19.80
22827;DHT22;11580;52.562;13.418;2023-09-08T12:18:16;30.40;19.80
22827;DHT22;11580;52.562;13.418;2023-09-08T12:20:45;30.50;19.70
22827;DHT22;11580;52.562;13.418;2023-09-08T12:23:17;30.50;19.40
22827;DHT22;11580;52.562;13.418;2023-09-08T12:25:46;30.50;19.10
22827;DHT22;11580;52.562;13.418;2023-09-08T12:28:15;30.60;19.40
22827;DHT22;11580;52.562;13.418;2023-09-08T12:30:44;30.60;19.40
22827;DHT22;11580;52.562;13.418;2023-09-08T12:33:12;30.60;19.00
22827;DHT22;11580;52.562;13.418;2023-09-08T12:35:42;30.60;18.70
22827;DHT22;11580;52.562;13.418;2023-09-08T12:38:13;30.60;18.90
22827;DHT22;11580;52.562;13.418;2023-09-08T12:40:40;30.60;18.20
22827;DHT22;11580;52.562;13.418;2023-09-08T12:43:08;30.60;18.30
22827;DHT22;11580;52.562;13.418;2023-09-08T12:45:35;30.70;18.40
22827;DHT22;11580;52.562;13.418;2023-09-08T12:48:02;30.70;18.40
22827;DHT22;11580;52.562;13.418;2023-09-08T12:50:30;30.70;18.40
22827;DHT22;11580;52.562;13.418;2023-09-08T12:52:58;30.70;18.40
22827;DHT22;11580;52.562;13.418;2023-09-08T12:55:25;30.70;18.40
22827;DHT22;11580;52.562;13.418;2023-09-08T12:57:53;30.70;18.30
22827;DHT22;11580;52.562;13.418;2023-09-08T13:00:21;30.70;18.20
22827;DHT22;11580;52.562;13.418;2023-09-08T13:02:49;30.70;18.30
22827;DHT22;11580;52.562;13.418;2023-09-08T13:05:17;30.70;18.30
22827;DHT22;11580;52.562;13.418;2023-09-08T13:07:44;30.80;18.20
22827;DHT22;11580;52.562;13.418;2023-09-08T13:10:12;30.80;18.20
22827;DHT22;11580;52.562;13.418;2023-09-08T13:12:40;30.80;18.00
22827;DHT22;11580;52.562;13.418;2023-09-08T13:15:08;30.80;18.10
22827;DHT22;11580;52.562;13.418;2023-09-08T13:17:36;30.90;18.30
22827;DHT22;11580;52.562;13.418;2023-09-08T13:20:03;30.90;18.50
22827;DHT22;11580;52.562;13.418;2023-09-08T13:22:32;30.90;18.50
22827;DHT22;11580;52.562;13.418;2023-09-08T13:24:59;30.90;18.60
22827;DHT22;11580;52.562;13.418;2023-09-08T13:27:28;30.90;18.50
22827;DHT22;11580;52.562;13.418;2023-09-08T13:30:07;30.90;18.30
22827;DHT22;11580;52.562;13.418;2023-09-08T13:32:35;31.00;18.10
22827;DHT22;11580;52.562;13.418;2023-09-08T13:35:03;31.00;18.30
22827;DHT22;11580;52.562;13.418;2023-09-08T13:37:31;31.00;18.50
22827;DHT22;11580;52.562;13.418;2023-09-08T13:40:00;31.00;18.40
22827;DHT22;11580;52.562;13.418;2023-09-08T13:42:28;31.00;18.30
22827;DHT22;11580;52.562;13.418;2023-09-08T13:44:55;31.00;18.30
22827;DHT22;11580;52.562;13.418;2023-09-08T13:47:22;31.00;18.30
22827;DHT22;11580;52.562;13.418;2023-09-08T13:49:49;31.00;18.20
22827;DHT22;11580;52.562;13.418;2023-09-08T13:52:16;31.00;18.20
22827;DHT22;11580;52.562;13.418;2023-09-08T13:54:44;31.10;18.10
22827;DHT22;11580;52.562;13.418;2023-09-08T13:57:11;31.10;18.10
22827;DHT22;11580;52.562;13.418;2023-09-08T13:59:39;31.10;17.90
22827;DHT22;11580;52.562;13.418;2023-09-08T14:02:06;31.10;17.70
22827;DHT22;11580;52.562;13.418;2023-09-08T14:04:33;31.10;18.40
22827;DHT22;11580;52.562;13.418;2023-09-08T14:07:01;31.10;17.80
22827;DHT22;11580;52.562;13.418;2023-09-08T14:09:28;31.10;17.50
22827;DHT22;11580;52.562;13.418;2023-09-08T14:11:55;31.10;17.60
22827;DHT22;11580;52.562;13.418;2023-09-08T14:14:23;31.10;17.50
22827;DHT22;11580;52.562;13.418;2023-09-08T14:16:51;31.10;17.60
22827;DHT22;11580;52.562;13.418;2023-09-08T14:19:18;31.10;17.60
22827;DHT22;11580;52.562;13.418;2023-09-08T14:21:45;31.10;17.50
22827;DHT22;11580;52.562;13.418;2023-09-08T14:24:13;31.10;17.60
22827;DHT22;11580;52.562;13.418;2023-09-08T14:26:40;31.10;17.70
22827;DHT22;11580;52.562;13.418;2023-09-08T14:29:07;31.10;17.50
22827;DHT22;11580;52.562;13.418;2023-09-08T14:31:34;31.10;17.40
22827;DHT22;11580;52.562;13.418;2023-09-08T14:34:03;31.10;17.30
22827;DHT22;11580;52.562;13.418;2023-09-08T14:36:30;31.10;17.00
22827;DHT22;11580;52.562;13.418;2023-09-08T14:38:57;31.10;17.10
22827;DHT22;11580;52.562;13.418;2023-09-08T14:41:24;31.10;17.20
22827;DHT22;11580;52.562;13.418;2023-09-08T14:43:52;31.10;17.10
22827;DHT22;11580;52.562;13.418;2023-09-08T14:46:19;31.10;17.10
22827;DHT22;11580;52.562;13.418;2023-09-08T14:48:46;31.10;17.10
22827;DHT22;11580;52.562;13.418;2023-09-08T14:51:14;31.10;17.20
22827;DHT22;11580;52.562;13.418;2023-09-08T14:53:41;31.10;17.10
22827;DHT22;11580;52.562;13.418;2023-09-08T14:56:08;31.10;17.10
22827;DHT22;11580;52.562;13.418;2023-09-08T14:58:35;31.00;17.00
22827;DHT22;11580;52.562;13.418;2023-09-08T15:01:03;31.00;17.00
22827;DHT22;11580;52.562;13.418;2023-09-08T15:03:33;31.00;17.00
22827;DHT22;11580;52.562;13.418;2023-09-08T15:06:01;31.00;17.20
22827;DHT22;11580;52.562;13.418;2023-09-08T15:08:29;31.00;17.20
22827;DHT22;11580;52.562;13.418;2023-09-08T15:10:57;31.00;17.20
22827;DHT22;11580;52.562;13.418;2023-09-08T15:13:24;30.90;17.20
22827;DHT22;11580;52.562;13.418;2023-09-08T15:15:51;30.90;17.20
22827;DHT22;11580;52.562;13.418;2023-09-08T15:18:18;30.90;17.20
22827;DHT22;11580;52.562;13.418;2023-09-08T15:20:51;30.90;17.20
22827;DHT22;11580;52.562;13.418;2023-09-08T15:23:19;30.80;16.70
22827;DHT22;11580;52.562;13.418;2023-09-08T15:25:55;30.80;16.80
22827;DHT22;11580;52.562;13.418;2023-09-08T15:28:23;30.80;16.50